Time;durP1;ratioP1;P1;durP2;ratioP2;P2;SDS_P1;SDS_P2;PMS_P1;PMS_P2;Temp;Humidity;BMP_temperature;BMP_pressure;BME280_temperature;BME280_humidity;BME280_pressure;Samples;Min_cycle;Max_cycle;Signal;HPM_P1;HPM_P2
2022/04/05 00:00:52;;;;;;;5.75;2.30;;;;;;;;;;5091436;28;20052;-62
2022/04/05 00:03:18;;;;;;;5.45;2.45;;;;;;;;;;5091525;28;20031;-63
2022/04/05 00:05:44;;;;;;;5.45;2.58;;;;;;;;;;5091480;28;20024;-62
2022/04/05 00:08:10;;;;;;;4.38;2.33;;;;;;;;;;5091613;28;20103;-62
2022/04/05 00:10:36;;;;;;;5.30;2.67;;;;;;;;;;5091446;28;20103;-62
2022/04/05 00:13:07;;;;;;;4.72;2.90;;;;;;;;;;5091192;28;20027;-58
2022/04/05 00:15:33;;;;;;;4.78;2.53;;;;;;;;;;5091096;28;20086;-61
2022/04/05 00:18:00;;;;;;;4.65;2.55;;;;;;;;;;5091274;28;20046;-58
2022/04/05 00:20:29;;;;;;;4.60;2.50;;;;;;;;;;5091340;28;20028;-59
2022/04/05 00:22:55;;;;;;;5.47;2.78;;;;;;;;;;5091314;28;20035;-59
2022/04/05 00:25:22;;;;;;;4.45;2.65;;;;;;;;;;5091121;28;20024;-60
2022/04/05 00:27:48;;;;;;;6.60;2.60;;;;;;;;;;5092268;28;20371;-61
2022/04/05 00:30:15;;;;;;;5.95;2.78;;;;;;;;;;5095056;28;20048;-61
2022/04/05 00:32:41;;;;;;;4.05;2.33;;;;;;;;;;5095407;28;20016;-61
2022/04/05 00:35:08;;;;;;;4.70;2.90;;;;;;;;;;5095052;28;20047;-60
2022/04/05 00:37:34;;;;;;;4.88;2.47;;;;;;;;;;5095099;28;20024;-60
2022/04/05 00:40:00;;;;;;;4.32;2.20;;;;;;;;;;5094541;28;20055;-62
2022/04/05 00:42:26;;;;;;;5.43;2.85;;;;;;;;;;5094801;28;20031;-62
2022/04/05 00:44:53;;;;;;;5.00;2.63;;;;;;;;;;5094710;28;20028;-61
2022/04/05 00:47:20;;;;;;;5.18;2.78;;;;;;;;;;5094710;28;20383;-60
2022/04/05 00:49:47;;;;;;;7.07;2.50;;;;;;;;;;5094671;28;20035;-59
2022/04/05 00:52:15;;;;;;;7.72;2.95;;;;;;;;;;5094557;28;20020;-60
2022/04/05 00:54:42;;;;;;;4.68;2.75;;;;;;;;;;5094568;28;20031;-62
2022/04/05 00:57:12;;;;;;;6.28;3.40;;;;;;;;;;5094511;28;20038;-60
2022/04/05 00:59:41;;;;;;;5.03;3.00;;;;;;;;;;5094425;28;20089;-60
2022/04/05 01:02:08;;;;;;;5.22;2.80;;;;;;;;;;5094429;28;20366;-61
2022/04/05 01:04:35;;;;;;;5.05;2.97;;;;;;;;;;5094364;28;20028;-60
2022/04/05 01:07:04;;;;;;;3.97;2.33;;;;;;;;;;5094316;28;20045;-59
2022/04/05 01:09:30;;;;;;;4.32;2.40;;;;;;;;;;5096072;28;20032;-59
2022/04/05 01:11:56;;;;;;;5.10;2.65;;;;;;;;;;5094139;28;20016;-59
2022/04/05 01:14:22;;;;;;;4.72;2.78;;;;;;;;;;5094079;28;20020;-59
2022/04/05 01:16:48;;;;;;;5.28;2.40;;;;;;;;;;5094170;28;20027;-60
2022/04/05 01:19:14;;;;;;;5.68;2.78;;;;;;;;;;5094189;28;20032;-61
2022/04/05 01:21:40;;;;;;;4.90;2.15;;;;;;;;;;5093862;28;20021;-61
2022/04/05 01:24:10;;;;;;;5.22;2.47;;;;;;;;;;5093983;28;20069;-62
2022/04/05 01:26:39;;;;;;;4.97;2.50;;;;;;;;;;5093996;28;20012;-61
2022/04/05 01:29:05;;;;;;;4.90;2.58;;;;;;;;;;5093996;28;20027;-61
2022/04/05 01:31:36;;;;;;;4.75;2.65;;;;;;;;;;5093938;28;20068;-60
2022/04/05 01:34:02;;;;;;;5.15;2.22;;;;;;;;;;5093619;28;20031;-61
2022/04/05 01:36:28;;;;;;;4.15;2.13;;;;;;;;;;5093705;28;20024;-59
2022/04/05 01:38:54;;;;;;;4.40;2.63;;;;;;;;;;5093427;28;20399;-60
2022/04/05 01:41:21;;;;;;;5.25;2.58;;;;;;;;;;5093722;28;20016;-58
2022/04/05 01:43:47;;;;;;;5.30;2.80;;;;;;;;;;5093564;28;20020;-59
2022/04/05 01:46:13;;;;;;;7.70;2.33;;;;;;;;;;5093603;28;20020;-59
2022/04/05 01:48:39;;;;;;;5.80;2.63;;;;;;;;;;5093732;28;20103;-58
2022/04/05 01:51:06;;;;;;;5.68;2.17;;;;;;;;;;5093636;28;20103;-59
2022/04/05 01:53:32;;;;;;;6.25;2.63;;;;;;;;;;5093423;28;20024;-62
2022/04/05 01:55:58;;;;;;;4.88;2.47;;;;;;;;;;5093506;28;20020;-62
2022/04/05 01:58:25;;;;;;;4.55;2.35;;;;;;;;;;5093346;28;20066;-60
2022/04/05 02:00:51;;;;;;;4.97;2.75;;;;;;;;;;5093384;28;20475;-62
2022/04/05 02:03:17;;;;;;;8.10;3.00;;;;;;;;;;5075095;28;20378;-63
2022/04/05 02:05:46;;;;;;;5.38;2.55;;;;;;;;;;5093253;28;20421;-59
2022/04/05 02:08:12;;;;;;;5.35;2.70;;;;;;;;;;5093099;28;20417;-63
2022/04/05 02:10:38;;;;;;;4.32;2.42;;;;;;;;;;5093064;28;20020;-63
2022/04/05 02:13:05;;;;;;;4.60;2.50;;;;;;;;;;5092978;28;20066;-59
2022/04/05 02:15:31;;;;;;;6.10;3.10;;;;;;;;;;5093165;28;20040;-62
2022/04/05 02:17:57;;;;;;;7.30;3.20;;;;;;;;;;5092765;28;20024;-61
2022/04/05 02:20:23;;;;;;;7.55;2.63;;;;;;;;;;5092662;28;20028;-61
2022/04/05 02:22:50;;;;;;;6.13;3.03;;;;;;;;;;5092908;28;20016;-59
2022/04/05 02:25:17;;;;;;;7.15;2.67;;;;;;;;;;5092840;28;20386;-60
2022/04/05 02:27:43;;;;;;;6.03;3.30;;;;;;;;;;5092863;28;20016;-60
2022/04/05 02:30:10;;;;;;;6.00;3.38;;;;;;;;;;5092779;28;20027;-60
2022/04/05 02:32:36;;;;;;;5.40;3.28;;;;;;;;;;5092748;28;20028;-61
2022/04/05 02:35:03;;;;;;;6.07;3.50;;;;;;;;;;5092312;28;20048;-60
2022/04/05 02:37:29;;;;;;;6.57;3.53;;;;;;;;;;5092520;28;20034;-62
2022/04/05 02:39:55;;;;;;;5.18;3.17;;;;;;;;;;5092338;28;20045;-61
2022/04/05 02:42:21;;;;;;;4.85;3.03;;;;;;;;;;5092543;28;20020;-60
2022/04/05 02:44:47;;;;;;;7.30;3.10;;;;;;;;;;5092470;28;20024;-60
2022/04/05 02:47:15;;;;;;;5.57;3.03;;;;;;;;;;5092593;28;20016;-59
2022/04/05 02:49:41;;;;;;;5.85;3.17;;;;;;;;;;5092130;28;20070;-60
2022/04/05 02:52:07;;;;;;;5.35;2.95;;;;;;;;;;5091797;28;20077;-61
2022/04/05 02:54:34;;;;;;;5.68;3.28;;;;;;;;;;5092256;28;20102;-61
2022/04/05 02:57:00;;;;;;;5.55;2.83;;;;;;;;;;5092328;28;20046;-61
2022/04/05 02:59:26;;;;;;;5.03;2.95;;;;;;;;;;5092168;28;20028;-61
2022/04/05 03:01:52;;;;;;;5.13;2.97;;;;;;;;;;5092141;28;20099;-61
2022/04/05 03:04:18;;;;;;;5.63;3.00;;;;;;;;;;5092106;28;20031;-59
2022/04/05 03:06:44;;;;;;;7.07;3.17;;;;;;;;;;5092282;28;20024;-61
2022/04/05 03:09:10;;;;;;;5.90;2.95;;;;;;;;;;5091320;28;20024;-61
2022/04/05 03:11:36;;;;;;;6.53;3.50;;;;;;;;;;5092008;28;20496;-61
2022/04/05 03:14:03;;;;;;;6.93;3.70;;;;;;;;;;5092124;28;20309;-61
2022/04/05 03:16:29;;;;;;;6.85;3.22;;;;;;;;;;5091971;28;20067;-61
2022/04/05 03:18:55;;;;;;;6.00;3.22;;;;;;;;;;5091943;28;20471;-61
2022/04/05 03:21:21;;;;;;;5.78;3.08;;;;;;;;;;5091904;28;20385;-59
2022/04/05 03:23:47;;;;;;;5.18;3.03;;;;;;;;;;5091888;28;20024;-60
2022/04/05 03:26:13;;;;;;;4.88;2.70;;;;;;;;;;5091879;28;20020;-61
2022/04/05 03:28:39;;;;;;;5.47;3.22;;;;;;;;;;5091767;28;20482;-61
2022/04/05 03:31:05;;;;;;;6.72;3.20;;;;;;;;;;5091833;28;20024;-62
2022/04/05 03:33:31;;;;;;;7.60;3.40;;;;;;;;;;5091701;28;20031;-61
2022/04/05 03:35:58;;;;;;;6.82;2.75;;;;;;;;;;5091065;28;20024;-60
2022/04/05 03:38:24;;;;;;;5.22;3.22;;;;;;;;;;5091356;28;20107;-60
2022/04/05 03:40:50;;;;;;;6.13;3.20;;;;;;;;;;5091722;28;20050;-61
2022/04/05 03:43:16;;;;;;;5.22;3.05;;;;;;;;;;5091639;28;20481;-61
2022/04/05 03:45:42;;;;;;;6.07;3.35;;;;;;;;;;5091602;28;20107;-62
2022/04/05 03:48:09;;;;;;;6.47;3.45;;;;;;;;;;5091444;28;20024;-59
2022/04/05 03:50:35;;;;;;;5.05;2.90;;;;;;;;;;5091341;28;20012;-59
2022/04/05 03:53:01;;;;;;;8.45;3.20;;;;;;;;;;5091379;28;20028;-61
2022/04/05 03:55:27;;;;;;;6.88;3.63;;;;;;;;;;5091531;28;20028;-60
2022/04/05 03:57:54;;;;;;;6.47;3.85;;;;;;;;;;5091372;28;20031;-61
2022/04/05 04:00:20;;;;;;;5.60;3.20;;;;;;;;;;5091134;28;20030;-60
2022/04/05 04:02:46;;;;;;;5.68;3.17;;;;;;;;;;5094229;28;20092;-60
2022/04/05 04:05:17;;;;;;;5.40;3.20;;;;;;;;;;5095631;28;20035;-60
2022/04/05 04:07:44;;;;;;;6.47;3.35;;;;;;;;;;5095595;28;20170;-59
2022/04/05 04:10:10;;;;;;;8.60;3.05;;;;;;;;;;5095582;28;20467;-59
2022/04/05 04:12:36;;;;;;;7.40;3.42;;;;;;;;;;5095448;28;20028;-60
2022/04/05 04:15:03;;;;;;;8.60;4.05;;;;;;;;;;5095032;28;20031;-59
2022/04/05 04:17:29;;;;;;;10.00;4.32;;;;;;;;;;5095347;28;20017;-61
2022/04/05 04:19:55;;;;;;;7.75;3.30;;;;;;;;;;5095267;28;20046;-59
2022/04/05 04:22:21;;;;;;;6.10;3.20;;;;;;;;;;5095122;28;20433;-59
2022/04/05 04:24:48;;;;;;;6.95;3.58;;;;;;;;;;5095191;28;20103;-59
2022/04/05 04:27:14;;;;;;;7.55;3.88;;;;;;;;;;5095354;28;20016;-59
2022/04/05 04:29:40;;;;;;;5.75;3.45;;;;;;;;;;5095158;28;20081;-61
2022/04/05 04:32:07;;;;;;;11.00;4.07;;;;;;;;;;5094847;28;20182;-60
2022/04/05 04:34:33;;;;;;;6.03;3.65;;;;;;;;;;5094952;28;20024;-61
2022/04/05 04:36:59;;;;;;;6.65;4.00;;;;;;;;;;5095061;28;20103;-61
2022/04/05 04:39:25;;;;;;;8.40;3.72;;;;;;;;;;5094805;28;20120;-59
2022/04/05 04:41:51;;;;;;;7.28;3.50;;;;;;;;;;5094755;28;20028;-61
2022/04/05 04:44:18;;;;;;;7.50;3.35;;;;;;;;;;5094855;28;20605;-60
2022/04/05 04:46:44;;;;;;;6.40;3.30;;;;;;;;;;5094909;28;20483;-59
2022/04/05 04:49:10;;;;;;;9.18;3.13;;;;;;;;;;5094755;28;20016;-59
2022/04/05 04:51:36;;;;;;;6.95;3.47;;;;;;;;;;5094512;28;20032;-59
2022/04/05 04:54:02;;;;;;;8.15;4.53;;;;;;;;;;5094623;28;20024;-59
2022/04/05 04:56:29;;;;;;;6.40;3.88;;;;;;;;;;5094686;28;20162;-59
2022/04/05 04:58:55;;;;;;;6.97;4.30;;;;;;;;;;5094503;28;20099;-60
2022/04/05 05:01:21;;;;;;;7.88;4.13;;;;;;;;;;5094272;28;20120;-59
2022/04/05 05:03:47;;;;;;;5.82;3.83;;;;;;;;;;5094188;28;20028;-60
2022/04/05 05:06:13;;;;;;;7.07;4.10;;;;;;;;;;5094205;28;20028;-59
2022/04/05 05:08:39;;;;;;;5.88;3.40;;;;;;;;;;5094399;28;20458;-59
2022/04/05 05:11:05;;;;;;;5.65;3.38;;;;;;;;;;5094372;28;20024;-60
2022/04/05 05:13:31;;;;;;;9.68;4.43;;;;;;;;;;5093750;28;20016;-61
2022/04/05 05:15:59;;;;;;;9.65;3.80;;;;;;;;;;5094220;28;20773;-61
2022/04/05 05:18:25;;;;;;;7.97;4.00;;;;;;;;;;5093694;28;20026;-61
2022/04/05 05:20:51;;;;;;;6.97;4.05;;;;;;;;;;5093636;28;20066;-63
2022/04/05 05:23:17;;;;;;;14.38;4.18;;;;;;;;;;5093656;28;20466;-60
2022/04/05 05:25:43;;;;;;;8.35;4.35;;;;;;;;;;5093828;28;20558;-62
2022/04/05 05:28:09;;;;;;;7.20;3.90;;;;;;;;;;5093997;28;20379;-62
2022/04/05 05:30:35;;;;;;;9.75;4.90;;;;;;;;;;5093912;28;20521;-61
2022/04/05 05:33:01;;;;;;;6.55;3.42;;;;;;;;;;5093686;28;20024;-61
2022/04/05 05:35:28;;;;;;;11.48;4.10;;;;;;;;;;5093789;28;20049;-59
2022/04/05 05:37:56;;;;;;;6.88;3.83;;;;;;;;;;5093324;28;20424;-60
2022/04/05 05:40:22;;;;;;;9.63;4.13;;;;;;;;;;5093206;28;20048;-60
2022/04/05 05:42:52;;;;;;;10.40;4.00;;;;;;;;;;5093513;28;20016;-59
2022/04/05 05:45:18;;;;;;;7.18;3.90;;;;;;;;;;5093647;28;20056;-61
2022/04/05 05:47:44;;;;;;;11.90;4.00;;;;;;;;;;5093563;28;20032;-58
2022/04/05 05:50:12;;;;;;;8.57;3.97;;;;;;;;;;5093428;28;20020;-59
2022/04/05 05:52:39;;;;;;;7.45;4.53;;;;;;;;;;5093300;28;20016;-60
2022/04/05 05:55:07;;;;;;;10.73;4.38;;;;;;;;;;5093412;28;20035;-62
2022/04/05 05:57:33;;;;;;;8.52;4.03;;;;;;;;;;5093268;28;20020;-61
2022/04/05 06:00:00;;;;;;;8.23;4.30;;;;;;;;;;5093205;28;20101;-61
2022/04/05 06:02:26;;;;;;;6.88;3.80;;;;;;;;;;5093102;28;20460;-60
2022/04/05 06:04:52;;;;;;;7.13;3.83;;;;;;;;;;5093091;28;20027;-59
2022/04/05 06:07:18;;;;;;;11.45;4.25;;;;;;;;;;5093330;28;20020;-60
2022/04/05 06:09:44;;;;;;;8.43;4.63;;;;;;;;;;5093132;28;20387;-60
2022/04/05 06:12:10;;;;;;;7.07;3.60;;;;;;;;;;5093001;28;20083;-60
2022/04/05 06:14:36;;;;;;;10.18;4.65;;;;;;;;;;5092983;28;20705;-60
2022/04/05 06:17:02;;;;;;;8.85;4.10;;;;;;;;;;5092735;28;20020;-62
2022/04/05 06:19:28;;;;;;;7.70;4.40;;;;;;;;;;5092716;28;20028;-63
2022/04/05 06:21:54;;;;;;;8.43;4.25;;;;;;;;;;5092845;28;20024;-63
2022/04/05 06:24:20;;;;;;;8.50;5.00;;;;;;;;;;5092777;28;20027;-61
2022/04/05 06:26:46;;;;;;;8.07;3.85;;;;;;;;;;5091769;28;20024;-62
2022/04/05 06:29:12;;;;;;;8.73;3.95;;;;;;;;;;5092730;28;20020;-60
2022/04/05 06:31:38;;;;;;;7.97;3.78;;;;;;;;;;5092399;28;20027;-62
2022/04/05 06:34:04;;;;;;;6.65;4.15;;;;;;;;;;5092300;28;20077;-61
2022/04/05 06:36:30;;;;;;;7.90;3.45;;;;;;;;;;5092194;28;20112;-62
2022/04/05 06:38:56;;;;;;;9.50;3.47;;;;;;;;;;5092112;28;20039;-60
2022/04/05 06:41:22;;;;;;;9.10;4.40;;;;;;;;;;5092479;28;20024;-60
2022/04/05 06:43:49;;;;;;;6.78;4.20;;;;;;;;;;5092434;28;20395;-61
2022/04/05 06:46:15;;;;;;;9.32;4.13;;;;;;;;;;5092337;28;20024;-61
2022/04/05 06:48:42;;;;;;;7.88;4.38;;;;;;;;;;5092546;28;20027;-61
2022/04/05 06:51:08;;;;;;;8.57;4.38;;;;;;;;;;5092183;28;20016;-60
2022/04/05 06:53:34;;;;;;;8.13;3.72;;;;;;;;;;5092230;28;20107;-59
2022/04/05 06:56:00;;;;;;;9.40;3.92;;;;;;;;;;5092282;28;20023;-59
2022/04/05 06:58:26;;;;;;;6.45;3.47;;;;;;;;;;5092397;28;20060;-61
2022/04/05 07:00:52;;;;;;;7.72;4.15;;;;;;;;;;5091946;28;20028;-60
2022/04/05 07:03:18;;;;;;;11.05;4.22;;;;;;;;;;5091968;28;20024;-59
2022/04/05 07:05:45;;;;;;;7.72;3.53;;;;;;;;;;5092154;28;20417;-60
2022/04/05 07:08:11;;;;;;;11.27;4.35;;;;;;;;;;5091665;28;20043;-60
2022/04/05 07:10:37;;;;;;;7.03;3.60;;;;;;;;;;5091345;28;20024;-60
2022/04/05 07:13:04;;;;;;;6.22;3.17;;;;;;;;;;5091893;28;20046;-61
2022/04/05 07:15:30;;;;;;;5.25;3.55;;;;;;;;;;5091873;28;20024;-61
2022/04/05 07:17:56;;;;;;;7.68;3.63;;;;;;;;;;5091623;28;20035;-61
2022/04/05 07:20:22;;;;;;;11.07;3.83;;;;;;;;;;5091646;28;20032;-60
2022/04/05 07:22:50;;;;;;;10.10;4.03;;;;;;;;;;5091635;28;20115;-61
2022/04/05 07:25:16;;;;;;;14.25;4.22;;;;;;;;;;5091638;28;20035;-61
2022/04/05 07:27:44;;;;;;;18.60;4.88;;;;;;;;;;5091586;28;20020;-61
2022/04/05 07:30:10;;;;;;;46.38;26.58;;;;;;;;;;5091567;28;20024;-60
2022/04/05 07:32:37;;;;;;;32.42;16.65;;;;;;;;;;5091699;28;20039;-60
2022/04/05 07:35:03;;;;;;;32.03;15.57;;;;;;;;;;5091543;28;20597;-61
2022/04/05 07:37:30;;;;;;;30.42;15.98;;;;;;;;;;5090486;28;20036;-61
2022/04/05 07:39:58;;;;;;;27.98;15.40;;;;;;;;;;5091099;28;20513;-60
2022/04/05 07:42:24;;;;;;;27.05;14.52;;;;;;;;;;5091420;28;20020;-61
2022/04/05 07:44:50;;;;;;;24.55;12.52;;;;;;;;;;5091416;28;20020;-61
2022/04/05 07:47:17;;;;;;;27.17;12.98;;;;;;;;;;5091450;28;20020;-61
2022/04/05 07:49:43;;;;;;;22.95;12.00;;;;;;;;;;5091463;28;20371;-61
2022/04/05 07:52:09;;;;;;;24.23;12.65;;;;;;;;;;5091546;28;20020;-61
2022/04/05 07:54:36;;;;;;;17.50;8.77;;;;;;;;;;5091891;28;20425;-64
2022/04/05 07:57:03;;;;;;;20.58;10.50;;;;;;;;;;5094270;28;20042;-61
2022/04/05 07:59:29;;;;;;;19.52;9.00;;;;;;;;;;5097341;28;20032;-62
2022/04/05 08:01:55;;;;;;;20.13;9.70;;;;;;;;;;5090593;28;20059;-60
2022/04/05 08:04:21;;;;;;;23.55;9.75;;;;;;;;;;5111177;28;20081;-60
2022/04/05 08:06:48;;;;;;;16.55;9.38;;;;;;;;;;5111454;28;20036;-60
2022/04/05 08:09:14;;;;;;;18.77;8.10;;;;;;;;;;5109840;28;20012;-59
2022/04/05 08:11:40;;;;;;;16.42;8.30;;;;;;;;;;5099950;28;20020;-60
2022/04/05 08:14:06;;;;;;;13.30;7.20;;;;;;;;;;5090379;28;20020;-61
2022/04/05 08:16:32;;;;;;;15.98;7.53;;;;;;;;;;5111004;28;20026;-60
2022/04/05 08:18:58;;;;;;;18.25;7.70;;;;;;;;;;5110968;28;20028;-61
2022/04/05 08:21:24;;;;;;;14.90;6.70;;;;;;;;;;5110982;28;20479;-59
2022/04/05 08:23:52;;;;;;;12.43;6.07;;;;;;;;;;5111219;28;20027;-58
2022/04/05 08:26:18;;;;;;;13.93;6.07;;;;;;;;;;5110880;28;20038;-60
2022/04/05 08:28:45;;;;;;;11.38;6.15;;;;;;;;;;5092776;28;20051;-60
2022/04/05 08:31:11;;;;;;;13.75;6.75;;;;;;;;;;5110948;28;20489;-60
2022/04/05 08:33:37;;;;;;;10.25;5.47;;;;;;;;;;5110652;28;20020;-59
2022/04/05 08:36:03;;;;;;;9.63;5.45;;;;;;;;;;5110963;28;20051;-60
2022/04/05 08:38:30;;;;;;;9.57;5.10;;;;;;;;;;5092284;28;20480;-59
2022/04/05 08:40:56;;;;;;;7.88;4.53;;;;;;;;;;5110809;28;20126;-59
2022/04/05 08:43:24;;;;;;;10.73;4.72;;;;;;;;;;5110598;28;20081;-58
2022/04/05 08:45:55;;;;;;;13.13;4.63;;;;;;;;;;5111171;28;20019;-58
2022/04/05 08:48:26;;;;;;;8.73;4.55;;;;;;;;;;5111134;28;20038;-60
2022/04/05 08:50:52;;;;;;;8.27;4.55;;;;;;;;;;5114124;28;20035;-58
2022/04/05 08:53:19;;;;;;;8.63;4.10;;;;;;;;;;5114381;28;20034;-60
2022/04/05 08:55:45;;;;;;;8.18;4.57;;;;;;;;;;5114339;28;20073;-62
2022/04/05 08:58:13;;;;;;;15.25;4.22;;;;;;;;;;5111601;28;20530;-62
2022/04/05 09:00:40;;;;;;;12.10;4.55;;;;;;;;;;5094264;28;20036;-61
2022/04/05 09:03:06;;;;;;;12.48;4.22;;;;;;;;;;5094302;28;20020;-63
2022/04/05 09:05:39;;;;;;;9.65;3.35;;;;;;;;;;5094341;28;20379;-62
2022/04/05 09:08:31;;;;;;;7.82;3.70;;;;;;;;;;5094411;28;20243;-61
2022/04/05 09:11:13;;;;;;;9.35;3.63;;;;;;;;;;5090757;28;20047;-62
2022/04/05 09:13:40;;;;;;;6.65;3.38;;;;;;;;;;5094389;28;20104;-62
2022/04/05 09:16:08;;;;;;;7.82;3.75;;;;;;;;;;5097239;28;20020;-59
2022/04/05 09:18:41;;;;;;;7.78;2.88;;;;;;;;;;5108295;28;20023;-59
2022/04/05 09:21:08;;;;;;;5.65;2.47;;;;;;;;;;5111371;28;20089;-59
2022/04/05 09:23:38;;;;;;;5.95;2.83;;;;;;;;;;5093410;28;20027;-60
2022/04/05 09:26:05;;;;;;;6.50;3.10;;;;;;;;;;5093538;28;20016;-60
2022/04/05 09:28:33;;;;;;;5.22;2.47;;;;;;;;;;5093386;28;20074;-61
2022/04/05 09:31:00;;;;;;;4.82;2.25;;;;;;;;;;5093406;28;20024;-59
2022/04/05 09:33:28;;;;;;;8.82;2.75;;;;;;;;;;5096813;28;20027;-59
2022/04/05 09:36:03;;;;;;;5.05;2.28;;;;;;;;;;5113568;28;20363;-61
2022/04/05 09:38:29;;;;;;;4.55;2.08;;;;;;;;;;5113739;28;20016;-61
2022/04/05 09:40:55;;;;;;;5.82;2.22;;;;;;;;;;5111016;28;20078;-61
2022/04/05 09:43:22;;;;;;;4.40;2.38;;;;;;;;;;5093507;28;20020;-61
2022/04/05 09:45:52;;;;;;;4.40;2.10;;;;;;;;;;5093650;28;20410;-61
2022/04/05 09:48:22;;;;;;;5.85;2.40;;;;;;;;;;5093192;28;20032;-60
2022/04/05 09:51:06;;;;;;;6.18;1.95;;;;;;;;;;5108011;28;20631;-61
2022/04/05 09:53:45;;;;;;;6.28;2.60;;;;;;;;;;5095344;28;20020;-61
2022/04/05 09:56:14;;;;;;;6.43;2.40;;;;;;;;;;5092383;28;20727;-61
2022/04/05 09:59:04;;;;;;;5.82;1.80;;;;;;;;;;5092187;28;20483;-60
2022/04/05 10:01:30;;;;;;;5.07;1.98;;;;;;;;;;5092140;28;20016;-62
2022/04/05 10:04:04;;;;;;;5.97;1.90;;;;;;;;;;5096007;28;20063;-60
2022/04/05 10:06:31;;;;;;;5.18;2.13;;;;;;;;;;5112138;28;20031;-61
2022/04/05 10:08:58;;;;;;;9.75;2.67;;;;;;;;;;5104914;28;20036;-61
2022/04/05 10:11:25;;;;;;;4.20;2.03;;;;;;;;;;5101132;28;20020;-61
2022/04/05 10:13:51;;;;;;;4.32;2.03;;;;;;;;;;5101365;28;20061;-61
2022/04/05 10:16:19;;;;;;;3.72;1.45;;;;;;;;;;5102421;28;20102;-61
2022/04/05 10:18:47;;;;;;;5.95;2.00;;;;;;;;;;5100896;28;20058;-61
2022/04/05 10:21:15;;;;;;;4.25;2.13;;;;;;;;;;5103324;28;20603;-63
2022/04/05 10:23:44;;;;;;;7.25;1.73;;;;;;;;;;5102520;28;20066;-61
2022/04/05 10:26:20;;;;;;;7.28;2.03;;;;;;;;;;5095964;28;20020;-61
2022/04/05 10:28:47;;;;;;;6.30;2.05;;;;;;;;;;5091706;28;20726;-60
2022/04/05 10:31:14;;;;;;;6.10;2.60;;;;;;;;;;5091808;28;20052;-61
2022/04/05 10:33:53;;;;;;;3.83;1.70;;;;;;;;;;5073838;28;20503;-60
2022/04/05 10:36:23;;;;;;;5.07;1.63;;;;;;;;;;5092481;28;20032;-61
2022/04/05 10:39:07;;;;;;;4.72;1.80;;;;;;;;;;5092323;28;20107;-60
2022/04/05 10:41:34;;;;;;;4.05;2.10;;;;;;;;;;5092555;28;20032;-60
2022/04/05 10:44:18;;;;;;;4.55;1.70;;;;;;;;;;5092369;28;20058;-60
2022/04/05 10:47:06;;;;;;;3.40;1.67;;;;;;;;;;5092308;28;20028;-60
2022/04/05 10:49:35;;;;;;;4.40;1.80;;;;;;;;;;5092262;28;20020;-61
2022/04/05 10:52:06;;;;;;;5.25;1.80;;;;;;;;;;5092144;28;20024;-60
2022/04/05 10:54:44;;;;;;;3.30;1.73;;;;;;;;;;5092176;28;20069;-60
2022/04/05 10:57:26;;;;;;;4.05;1.80;;;;;;;;;;5092204;28;20032;-60
2022/04/05 11:00:15;;;;;;;6.30;1.90;;;;;;;;;;5092144;28;20525;-60
2022/04/05 11:03:01;;;;;;;4.25;1.80;;;;;;;;;;5081626;28;20028;-60
2022/04/05 11:05:35;;;;;;;3.58;1.77;;;;;;;;;;5092454;28;20098;-61
2022/04/05 11:08:07;;;;;;;4.55;2.05;;;;;;;;;;5092008;28;20374;-60
2022/04/05 11:10:39;;;;;;;4.38;1.75;;;;;;;;;;5092066;28;20016;-60
2022/04/05 11:13:05;;;;;;;3.28;1.63;;;;;;;;;;5091536;28;20024;-60
2022/04/05 11:15:43;;;;;;;2.95;1.50;;;;;;;;;;5091717;28;20062;-60
2022/04/05 11:18:10;;;;;;;3.47;1.67;;;;;;;;;;5091853;28;20498;-60
2022/04/05 11:20:38;;;;;;;4.40;1.67;;;;;;;;;;5091783;28;20078;-60
2022/04/05 11:23:05;;;;;;;3.13;1.65;;;;;;;;;;5073780;28;20370;-61
2022/04/05 11:25:32;;;;;;;3.72;2.00;;;;;;;;;;5091698;28;20059;-60
2022/04/05 11:28:17;;;;;;;3.35;1.52;;;;;;;;;;5093807;28;20052;-60
2022/04/05 11:30:49;;;;;;;3.13;1.67;;;;;;;;;;5091660;28;20028;-64
2022/04/05 11:33:19;;;;;;;5.97;1.80;;;;;;;;;;5102589;28;20032;-61
2022/04/05 11:35:48;;;;;;;3.65;1.58;;;;;;;;;;5111164;28;20027;-61
2022/04/05 11:38:17;;;;;;;3.65;1.50;;;;;;;;;;5111341;28;20019;-61
2022/04/05 11:40:48;;;;;;;3.88;1.90;;;;;;;;;;5110783;28;20051;-62
2022/04/05 11:43:24;;;;;;;4.40;1.77;;;;;;;;;;5098301;28;20566;-60
2022/04/05 11:45:53;;;;;;;3.65;1.60;;;;;;;;;;5090740;28;20020;-59
2022/04/05 11:48:22;;;;;;;4.13;1.80;;;;;;;;;;5072935;28;20524;-61
2022/04/05 11:50:49;;;;;;;3.60;1.35;;;;;;;;;;5091387;28;20095;-59
2022/04/05 11:53:18;;;;;;;3.22;1.40;;;;;;;;;;5091521;28;20024;-59
2022/04/05 11:56:03;;;;;;;2.75;1.33;;;;;;;;;;5091677;28;20065;-59
2022/04/05 11:58:30;;;;;;;4.90;1.33;;;;;;;;;;5091454;28;20103;-59
2022/04/05 12:00:57;;;;;;;3.05;1.25;;;;;;;;;;5091229;28;20036;-61
2022/04/05 12:03:24;;;;;;;2.05;1.10;;;;;;;;;;5091359;28;20107;-61
2022/04/05 12:05:50;;;;;;;2.88;1.23;;;;;;;;;;5091281;28;20062;-62
2022/04/05 12:08:16;;;;;;;4.13;1.42;;;;;;;;;;5091417;28;20020;-63
2022/04/05 12:10:44;;;;;;;3.72;1.20;;;;;;;;;;5091355;28;20095;-59
2022/04/05 12:13:10;;;;;;;2.10;1.00;;;;;;;;;;5091315;28;20055;-63
2022/04/05 12:15:37;;;;;;;2.53;1.20;;;;;;;;;;5091192;28;20028;-61
2022/04/05 12:18:19;;;;;;;2.67;1.10;;;;;;;;;;5091126;28;20028;-58
2022/04/05 12:20:58;;;;;;;3.72;1.10;;;;;;;;;;5091006;28;20028;-61
2022/04/05 12:23:28;;;;;;;4.97;1.48;;;;;;;;;;5091363;28;20103;-59
2022/04/05 12:26:11;;;;;;;1.88;1.00;;;;;;;;;;5095055;28;20024;-60
2022/04/05 12:28:38;;;;;;;3.72;1.25;;;;;;;;;;5098410;28;20021;-61
2022/04/05 12:31:26;;;;;;;3.08;1.30;;;;;;;;;;5107301;28;20024;-60
2022/04/05 12:34:13;;;;;;;2.25;0.90;;;;;;;;;;5112714;28;20044;-60
2022/04/05 12:36:43;;;;;;;2.13;0.98;;;;;;;;;;5094589;28;20050;-60
2022/04/05 12:39:24;;;;;;;2.15;1.05;;;;;;;;;;5094292;28;20041;-61
2022/04/05 12:41:53;;;;;;;1.83;0.77;;;;;;;;;;5094528;28;20055;-60
2022/04/05 12:44:20;;;;;;;2.25;0.90;;;;;;;;;;5094587;28;20016;-59
2022/04/05 12:46:52;;;;;;;2.90;1.30;;;;;;;;;;5102568;28;20028;-58
2022/04/05 12:49:34;;;;;;;1.75;1.00;;;;;;;;;;5114842;28;20027;-59
2022/04/05 12:52:09;;;;;;;1.80;0.60;;;;;;;;;;5114719;28;20008;-59
2022/04/05 12:54:37;;;;;;;3.83;1.10;;;;;;;;;;5114649;28;20279;-59
2022/04/05 12:57:18;;;;;;;2.38;0.90;;;;;;;;;;5114656;28;20608;-61
2022/04/05 12:59:45;;;;;;;4.07;0.98;;;;;;;;;;5114258;28;20040;-60
2022/04/05 13:02:21;;;;;;;2.85;1.20;;;;;;;;;;5114456;28;20043;-60
2022/04/05 13:04:48;;;;;;;1.98;0.90;;;;;;;;;;5114481;28;20073;-60
2022/04/05 13:07:15;;;;;;;9.05;1.17;;;;;;;;;;5114489;28;20016;-60
2022/04/05 13:09:41;;;;;;;2.10;0.82;;;;;;;;;;5113661;28;20571;-60
2022/04/05 13:12:14;;;;;;;3.28;0.85;;;;;;;;;;5113391;28;20103;-59
2022/04/05 13:14:40;;;;;;;2.72;1.08;;;;;;;;;;5114457;28;20034;-60
2022/04/05 13:17:08;;;;;;;1.65;0.80;;;;;;;;;;5114454;28;20072;-59
2022/04/05 13:19:35;;;;;;;2.88;1.00;;;;;;;;;;5114312;28;20028;-59
2022/04/05 13:22:01;;;;;;;1.75;1.10;;;;;;;;;;5114278;28;20032;-59
2022/04/05 13:24:38;;;;;;;1.42;0.80;;;;;;;;;;5096013;28;20028;-59
2022/04/05 13:27:05;;;;;;;3.08;1.00;;;;;;;;;;5093869;28;20035;-59
2022/04/05 13:29:31;;;;;;;2.72;0.95;;;;;;;;;;5093778;28;20034;-59
2022/04/05 13:32:01;;;;;;;2.20;0.88;;;;;;;;;;5093651;28;20024;-59
2022/04/05 13:34:28;;;;;;;2.38;0.90;;;;;;;;;;5093014;28;20495;-59
2022/04/05 13:36:54;;;;;;;4.18;1.23;;;;;;;;;;5093398;28;20032;-61
2022/04/05 13:39:21;;;;;;;1.90;0.93;;;;;;;;;;5093288;28;20442;-59
2022/04/05 13:41:47;;;;;;;2.85;1.10;;;;;;;;;;5093395;28;20024;-60
2022/04/05 13:44:14;;;;;;;2.67;0.85;;;;;;;;;;5093522;28;20020;-60
2022/04/05 13:46:40;;;;;;;1.42;0.60;;;;;;;;;;5093280;28;20024;-60
2022/04/05 13:49:07;;;;;;;4.60;1.05;;;;;;;;;;5093353;28;20020;-60
2022/04/05 13:51:34;;;;;;;2.10;1.02;;;;;;;;;;5093316;28;20021;-59
2022/04/05 13:54:01;;;;;;;2.40;0.90;;;;;;;;;;5093296;28;20539;-59
2022/04/05 13:56:27;;;;;;;2.28;0.98;;;;;;;;;;5093357;28;20505;-60
2022/04/05 13:58:55;;;;;;;21.20;3.00;;;;;;;;;;5093091;28;20406;-60
2022/04/05 14:01:21;;;;;;;14.68;2.47;;;;;;;;;;5093216;28;20495;-60
2022/04/05 14:03:47;;;;;;;16.27;2.30;;;;;;;;;;5096831;28;20107;-61
2022/04/05 14:06:13;;;;;;;9.63;1.60;;;;;;;;;;5096606;28;20059;-61
2022/04/05 14:08:40;;;;;;;10.60;1.95;;;;;;;;;;5093442;28;20026;-61
2022/04/05 14:11:06;;;;;;;10.25;2.05;;;;;;;;;;5093153;28;20024;-60
2022/04/05 14:13:32;;;;;;;8.20;1.65;;;;;;;;;;5097027;28;20023;-60
2022/04/05 14:15:59;;;;;;;10.55;1.80;;;;;;;;;;5093988;28;20025;-60
2022/04/05 14:18:25;;;;;;;9.23;1.70;;;;;;;;;;5091950;28;20085;-59
2022/04/05 14:20:51;;;;;;;8.35;1.77;;;;;;;;;;5107942;28;20027;-60
2022/04/05 14:23:17;;;;;;;5.20;1.35;;;;;;;;;;5112505;28;20102;-60
2022/04/05 14:25:43;;;;;;;4.25;1.02;;;;;;;;;;5112947;28;20024;-61
2022/04/05 14:28:09;;;;;;;8.65;1.50;;;;;;;;;;5113082;28;20115;-60
2022/04/05 14:30:35;;;;;;;3.40;1.05;;;;;;;;;;5112662;28;20024;-61
2022/04/05 14:33:02;;;;;;;3.58;1.10;;;;;;;;;;5096093;28;20024;-60
2022/04/05 14:35:28;;;;;;;5.28;1.60;;;;;;;;;;5092756;28;20134;-60
2022/04/05 14:37:54;;;;;;;5.10;1.50;;;;;;;;;;5096016;28;20483;-61
2022/04/05 14:40:20;;;;;;;2.97;0.95;;;;;;;;;;5106339;28;20043;-60
2022/04/05 14:42:48;;;;;;;6.32;1.17;;;;;;;;;;5112243;28;20387;-60
2022/04/05 14:45:14;;;;;;;4.68;1.35;;;;;;;;;;5111857;28;20027;-61